createdAt,value
2018-10-05T00:01:31.330Z,99.90
2018-10-05T00:04:00.032Z,99.90
2018-10-05T00:06:28.661Z,99.90
2018-10-05T00:08:57.241Z,99.90
2018-10-05T00:11:26.848Z,99.90
2018-10-05T00:13:55.407Z,99.90
2018-10-05T00:16:24.017Z,99.90
2018-10-05T00:18:52.621Z,99.90
2018-10-05T00:21:21.438Z,99.90
2018-10-05T00:23:50.081Z,99.90
2018-10-05T00:26:18.673Z,99.90
2018-10-05T00:28:47.246Z,99.90
2018-10-05T00:31:15.842Z,99.90
2018-10-05T00:33:44.458Z,99.90
2018-10-05T00:36:13.520Z,99.90
2018-10-05T00:38:42.566Z,99.90
2018-10-05T00:41:11.622Z,99.90
2018-10-05T00:43:40.654Z,99.90
2018-10-05T00:46:09.664Z,99.90
2018-10-05T00:48:38.843Z,99.90
2018-10-05T00:51:08.050Z,99.90
2018-10-05T00:53:37.321Z,99.90
2018-10-05T00:56:06.323Z,99.90
2018-10-05T00:58:35.834Z,99.90
2018-10-05T01:01:10.687Z,99.90
2018-10-05T01:03:39.642Z,99.90
2018-10-05T01:06:08.599Z,99.90
2018-10-05T01:08:37.653Z,99.90
2018-10-05T01:11:06.431Z,99.90
2018-10-05T01:13:35.751Z,99.90
2018-10-05T01:16:05.186Z,99.90
2018-10-05T01:18:39.003Z,99.90
2018-10-05T01:21:07.778Z,99.90
2018-10-05T01:23:36.846Z,99.90
2018-10-05T01:26:06.283Z,99.90
2018-10-05T01:28:35.926Z,99.90
2018-10-05T01:31:05.262Z,99.90
2018-10-05T01:33:34.739Z,99.90
2018-10-05T01:36:04.265Z,99.90
2018-10-05T01:38:34.264Z,99.90
2018-10-05T01:41:03.928Z,99.90
2018-10-05T01:43:33.274Z,99.90
2018-10-05T01:46:03.159Z,99.90
2018-10-05T01:48:32.201Z,99.90
2018-10-05T01:51:01.019Z,99.90
2018-10-05T01:53:29.678Z,99.90
2018-10-05T01:55:58.240Z,99.90
2018-10-05T01:58:26.848Z,99.90
2018-10-05T02:00:55.442Z,99.90
2018-10-05T02:03:24.046Z,99.90
2018-10-05T02:05:52.700Z,99.90
2018-10-05T02:08:21.294Z,99.90
2018-10-05T02:10:49.897Z,99.90
2018-10-05T02:13:18.850Z,99.90
2018-10-05T02:15:47.414Z,99.90
2018-10-05T02:18:16.053Z,99.90
2018-10-05T02:20:44.893Z,99.90
2018-10-05T02:23:13.781Z,99.90
2018-10-05T02:25:43.026Z,99.90
2018-10-05T02:28:12.184Z,99.90
2018-10-05T02:30:41.125Z,99.90
2018-10-05T02:33:10.184Z,99.90
2018-10-05T02:35:39.085Z,99.90
2018-10-05T02:38:08.451Z,99.90
2018-10-05T02:40:38.064Z,99.90
2018-10-05T02:43:07.178Z,99.90
2018-10-05T02:45:37.488Z,99.90
2018-10-05T02:48:06.706Z,99.90
2018-10-05T02:50:35.731Z,99.90
2018-10-05T02:53:04.942Z,99.90
2018-10-05T02:55:34.306Z,99.90
2018-10-05T02:58:03.755Z,99.90
2018-10-05T03:00:43.674Z,99.90
2018-10-05T03:03:12.688Z,99.90
2018-10-05T03:05:43.206Z,99.90
2018-10-05T03:08:12.210Z,99.90
2018-10-05T03:10:41.212Z,99.90
2018-10-05T03:13:10.259Z,99.90
2018-10-05T03:15:39.375Z,99.90
2018-10-05T03:18:08.629Z,99.90
2018-10-05T03:20:38.083Z,99.90
2018-10-05T03:23:07.520Z,99.90
2018-10-05T03:25:37.100Z,99.90
2018-10-05T03:28:06.628Z,99.90
2018-10-05T03:30:36.403Z,99.90
2018-10-05T03:33:06.125Z,99.90
2018-10-05T03:35:36.647Z,99.90
2018-10-05T03:38:06.235Z,99.90
2018-10-05T03:40:35.941Z,99.90
2018-10-05T03:43:06.323Z,99.90
2018-10-05T03:45:35.441Z,99.90
2018-10-05T03:48:05.207Z,99.90
2018-10-05T03:50:34.736Z,99.90
2018-10-05T03:53:04.832Z,99.90
2018-10-05T03:55:34.776Z,99.90
2018-10-05T03:58:04.472Z,99.90
2018-10-05T04:00:35.438Z,99.90
2018-10-05T04:03:05.643Z,99.90
2018-10-05T04:05:35.022Z,99.90
2018-10-05T04:08:05.138Z,99.90
2018-10-05T04:10:35.095Z,99.90
2018-10-05T04:13:05.119Z,99.90
2018-10-05T04:15:35.937Z,99.90
2018-10-05T04:18:05.666Z,99.90
2018-10-05T04:20:35.967Z,99.90
2018-10-05T04:23:05.745Z,99.90
2018-10-05T04:25:35.807Z,99.90
2018-10-05T04:28:05.971Z,99.90
2018-10-05T04:30:35.457Z,99.90
2018-10-05T04:33:04.668Z,99.90
2018-10-05T04:35:34.255Z,99.90
2018-10-05T04:38:04.403Z,99.90
2018-10-05T04:40:34.331Z,99.90
2018-10-05T04:43:04.145Z,99.90
2018-10-05T04:45:34.710Z,99.90
2018-10-05T04:48:04.886Z,99.90
2018-10-05T04:50:34.704Z,99.90
2018-10-05T04:53:05.161Z,99.90
2018-10-05T04:55:35.138Z,99.90
2018-10-05T04:58:05.665Z,99.90
2018-10-05T05:00:36.294Z,99.90
2018-10-05T05:03:05.856Z,99.90
2018-10-05T05:05:35.745Z,99.90
2018-10-05T05:08:05.617Z,99.90
2018-10-05T05:10:35.503Z,99.90
2018-10-05T05:13:05.470Z,99.90
2018-10-05T05:15:35.240Z,99.90
2018-10-05T05:18:04.772Z,99.90
2018-10-05T05:20:33.888Z,99.90
2018-10-05T05:23:03.952Z,99.90
2018-10-05T05:25:33.866Z,99.90
2018-10-05T05:28:03.967Z,99.90
2018-10-05T05:30:33.756Z,99.90
2018-10-05T05:33:03.649Z,99.90
2018-10-05T05:35:33.264Z,99.90
2018-10-05T05:38:02.497Z,99.90
2018-10-05T05:40:33.295Z,99.90
2018-10-05T05:43:12.364Z,99.90
2018-10-05T05:45:41.316Z,99.90
2018-10-05T05:48:10.261Z,99.90
2018-10-05T05:50:39.390Z,99.90
2018-10-05T05:53:08.800Z,99.90
2018-10-05T05:55:38.186Z,99.90
2018-10-05T05:58:07.312Z,99.90
2018-10-05T06:00:36.547Z,99.90
2018-10-05T06:03:06.233Z,99.90
2018-10-05T06:05:35.542Z,99.90
2018-10-05T06:08:04.684Z,99.90
2018-10-05T06:10:33.924Z,99.90
2018-10-05T06:13:03.039Z,99.90
2018-10-05T06:15:32.078Z,99.90
2018-10-05T06:18:01.441Z,99.90
2018-10-05T06:20:30.107Z,99.90
2018-10-05T06:22:58.805Z,99.90
2018-10-05T06:25:27.541Z,99.90
2018-10-05T06:27:56.422Z,99.90
2018-10-05T06:30:25.608Z,99.90
2018-10-05T06:32:54.600Z,99.90
2018-10-05T06:35:23.505Z,99.90
2018-10-05T06:37:52.122Z,99.90
2018-10-05T06:40:20.706Z,99.90
2018-10-05T06:42:49.285Z,99.90
2018-10-05T06:45:17.886Z,99.90
2018-10-05T06:47:46.475Z,99.90
2018-10-05T06:50:15.034Z,99.90
2018-10-05T06:52:43.643Z,99.90
2018-10-05T06:55:12.391Z,99.90
2018-10-05T06:57:41.238Z,99.90
2018-10-05T07:00:10.266Z,99.90
2018-10-05T07:02:39.583Z,99.90
2018-10-05T07:05:08.869Z,99.90
2018-10-05T07:07:37.733Z,99.90
2018-10-05T07:10:06.891Z,99.90
2018-10-05T07:12:36.598Z,99.90
2018-10-05T07:15:06.664Z,99.90
2018-10-05T07:17:36.286Z,99.90
2018-10-05T07:20:05.854Z,99.90
2018-10-05T07:22:35.517Z,99.90
2018-10-05T07:25:04.992Z,99.90
2018-10-05T07:27:35.100Z,99.90
2018-10-05T07:30:04.662Z,99.90
2018-10-05T07:32:34.789Z,99.90
2018-10-05T07:35:04.575Z,99.90
2018-10-05T07:37:34.542Z,99.90
2018-10-05T07:40:04.065Z,99.90
2018-10-05T07:42:33.860Z,99.90
2018-10-05T07:45:02.804Z,99.90
2018-10-05T07:47:32.005Z,99.90
2018-10-05T07:50:00.720Z,99.90
2018-10-05T07:52:29.335Z,99.90
2018-10-05T07:54:57.992Z,99.90
2018-10-05T07:57:26.902Z,99.90
2018-10-05T07:59:55.938Z,99.90
2018-10-05T08:02:24.964Z,99.90
2018-10-05T08:07:30.631Z,99.90
2018-10-05T08:09:59.934Z,99.90
2018-10-05T08:12:28.642Z,99.90
2018-10-05T08:14:57.556Z,99.90
2018-10-05T08:17:26.206Z,99.90
2018-10-05T08:19:55.654Z,99.90
2018-10-05T08:22:24.248Z,99.90
2018-10-05T08:24:52.821Z,99.90
2018-10-05T08:27:21.437Z,99.90
2018-10-05T08:29:50.063Z,99.90
2018-10-05T08:32:18.648Z,99.90
2018-10-05T08:34:47.262Z,99.90
2018-10-05T08:37:15.870Z,99.90
2018-10-05T08:39:44.522Z,99.90
2018-10-05T08:42:13.057Z,99.90
2018-10-05T08:44:42.118Z,99.90
2018-10-05T08:47:11.093Z,99.90
2018-10-05T08:49:39.786Z,99.90
2018-10-05T08:52:09.163Z,99.90
2018-10-05T08:54:38.042Z,99.90
2018-10-05T08:57:07.743Z,99.90
2018-10-05T08:59:37.984Z,99.90
2018-10-05T09:02:07.413Z,99.90
2018-10-05T09:04:37.319Z,99.90
2018-10-05T09:07:06.944Z,99.90
2018-10-05T09:09:36.452Z,99.90
2018-10-05T09:12:06.382Z,99.90
2018-10-05T09:14:35.932Z,99.90
2018-10-05T09:17:06.915Z,99.90
2018-10-05T09:19:36.388Z,99.90
2018-10-05T09:22:07.559Z,99.90
2018-10-05T09:24:37.685Z,99.90
2018-10-05T09:27:07.012Z,99.90
2018-10-05T09:29:36.551Z,99.90
2018-10-05T09:32:06.020Z,99.90
2018-10-05T09:34:36.031Z,99.90
2018-10-05T09:37:05.382Z,99.90
2018-10-05T09:39:34.898Z,99.90
2018-10-05T09:42:04.333Z,99.90
2018-10-05T09:44:33.421Z,99.90
2018-10-05T09:47:03.840Z,99.90
2018-10-05T09:49:33.722Z,99.90
2018-10-05T09:52:02.798Z,99.90
2018-10-05T09:54:31.938Z,99.90
2018-10-05T09:57:01.119Z,99.90
2018-10-05T09:59:29.781Z,99.90
2018-10-05T10:02:03.882Z,99.90
2018-10-05T10:04:32.991Z,99.90
2018-10-05T10:07:02.435Z,99.90
2018-10-05T10:09:31.535Z,99.90
2018-10-05T10:12:00.231Z,99.90
2018-10-05T10:14:28.922Z,99.90
2018-10-05T10:16:57.653Z,99.90
2018-10-05T10:19:26.485Z,99.90
2018-10-05T10:21:55.756Z,99.90
2018-10-05T10:24:25.128Z,99.90
2018-10-05T10:26:54.107Z,99.90
2018-10-05T10:29:22.785Z,99.90
2018-10-05T10:31:51.575Z,99.90
2018-10-05T10:34:20.236Z,99.90
2018-10-05T10:36:49.015Z,99.90
2018-10-05T10:39:17.620Z,99.90
2018-10-05T10:41:46.240Z,99.90
2018-10-05T10:44:14.828Z,99.90
2018-10-05T10:46:43.467Z,99.90
2018-10-05T10:49:12.142Z,99.90
2018-10-05T10:51:41.152Z,99.90
2018-10-05T10:54:10.282Z,99.90
2018-10-05T10:56:39.472Z,99.90
2018-10-05T10:59:08.671Z,99.90
2018-10-05T11:01:37.851Z,99.90
2018-10-05T11:04:07.511Z,99.90
2018-10-05T11:06:36.912Z,99.90
2018-10-05T11:09:07.392Z,99.90
2018-10-05T11:11:37.456Z,99.90
2018-10-05T11:14:07.435Z,99.90
2018-10-05T11:16:36.855Z,99.90
2018-10-05T11:19:06.826Z,99.90
2018-10-05T11:21:36.541Z,99.90
2018-10-05T11:24:05.789Z,99.90
2018-10-05T11:26:35.988Z,99.90
2018-10-05T11:29:06.288Z,99.90
2018-10-05T11:31:37.135Z,99.90
2018-10-05T11:34:06.719Z,99.90
2018-10-05T11:36:36.754Z,99.90
2018-10-05T11:39:07.337Z,99.90
2018-10-05T11:41:38.964Z,99.20
2018-10-05T11:44:08.692Z,98.60
2018-10-05T11:46:38.677Z,99.90
2018-10-05T11:49:08.337Z,98.00
2018-10-05T11:51:38.935Z,99.20
2018-10-05T11:54:09.680Z,97.30
2018-10-05T11:56:38.893Z,99.00
2018-10-05T11:59:09.498Z,99.90
2018-10-05T12:01:39.254Z,97.80
2018-10-05T12:04:09.795Z,98.40
2018-10-05T12:06:39.699Z,96.50
2018-10-05T12:09:10.440Z,96.70
2018-10-05T12:11:39.442Z,96.50
2018-10-05T12:14:09.170Z,95.50
2018-10-05T12:16:38.186Z,96.20
2018-10-05T12:19:08.136Z,96.30
2018-10-05T12:21:37.421Z,93.70
2018-10-05T12:24:07.172Z,92.90
2018-10-05T12:26:37.428Z,94.00
2018-10-05T12:29:07.188Z,93.80
2018-10-05T12:31:40.152Z,93.10
2018-10-05T12:34:09.494Z,93.40
2018-10-05T12:36:38.647Z,92.80
2018-10-05T12:39:08.591Z,95.00
2018-10-05T12:41:39.017Z,91.50
2018-10-05T12:44:09.150Z,92.20
2018-10-05T12:46:38.477Z,92.00
2018-10-05T12:49:07.646Z,92.60
2018-10-05T12:51:37.236Z,91.10
2018-10-05T12:54:06.345Z,89.40
2018-10-05T12:56:36.659Z,90.20
2018-10-05T12:59:07.330Z,89.60
2018-10-05T13:01:38.331Z,89.30
2018-10-05T13:04:08.232Z,89.10
2018-10-05T13:06:38.489Z,89.90
2018-10-05T13:09:08.340Z,83.80
2018-10-05T13:11:38.960Z,88.30
2018-10-05T13:14:08.375Z,88.30
2018-10-05T13:16:37.930Z,87.00
2018-10-05T13:19:08.724Z,91.80
2018-10-05T13:21:38.422Z,90.00
2018-10-05T13:24:08.213Z,87.20
2018-10-05T13:26:37.716Z,88.00
2018-10-05T13:29:08.247Z,89.00
2018-10-05T13:31:37.118Z,84.40
2018-10-05T13:34:08.542Z,91.40
2018-10-05T13:36:37.661Z,86.00
2018-10-05T13:39:09.122Z,82.80
2018-10-05T13:41:38.606Z,91.60
2018-10-05T13:44:08.034Z,88.80
2018-10-05T13:46:37.360Z,90.50
2018-10-05T13:49:06.870Z,90.30
2018-10-05T13:51:38.911Z,86.20
2018-10-05T13:54:08.193Z,83.20
2018-10-05T13:56:37.466Z,85.60
2018-10-05T13:59:07.606Z,84.60
2018-10-05T14:01:37.210Z,86.90
2018-10-05T14:04:06.803Z,86.80
2018-10-05T14:06:36.266Z,87.40
2018-10-05T14:09:08.418Z,87.00
2018-10-05T14:11:38.436Z,84.10
2018-10-05T14:14:07.916Z,87.50
2018-10-05T14:16:37.454Z,88.50
2018-10-05T14:19:07.597Z,84.90
2018-10-05T14:21:36.888Z,86.00
2018-10-05T14:24:06.081Z,86.60
2018-10-05T14:26:35.579Z,86.40
2018-10-05T14:29:05.319Z,84.30
2018-10-05T14:31:34.590Z,80.20
2018-10-05T14:34:04.095Z,84.10
2018-10-05T14:36:34.761Z,82.90
2018-10-05T14:39:05.491Z,87.80
2018-10-05T14:41:34.526Z,88.60
2018-10-05T14:44:05.369Z,86.00
2018-10-05T14:46:35.451Z,88.80
2018-10-05T14:49:05.258Z,87.30
2018-10-05T14:51:34.982Z,88.80
2018-10-05T14:54:04.579Z,89.10
2018-10-05T14:56:33.995Z,85.80
2018-10-05T14:59:03.040Z,84.70
2018-10-05T15:01:32.292Z,89.40
2018-10-05T15:04:01.520Z,86.90
2018-10-05T15:06:30.623Z,91.00
2018-10-05T15:09:00.024Z,91.00
2018-10-05T15:11:29.212Z,90.90
2018-10-05T15:13:58.328Z,88.30
2018-10-05T15:16:27.280Z,88.50
2018-10-05T15:18:55.917Z,92.50
2018-10-05T15:21:24.544Z,90.00
2018-10-05T15:23:53.427Z,90.70
2018-10-05T15:26:22.199Z,92.80
2018-10-05T15:28:50.778Z,91.30
2018-10-05T15:31:19.367Z,93.00
2018-10-05T15:33:48.079Z,92.20
2018-10-05T15:36:16.636Z,94.50
2018-10-05T15:38:45.451Z,96.00
2018-10-05T15:41:15.710Z,92.30
2018-10-05T15:43:45.136Z,91.90
2018-10-05T15:46:23.751Z,94.10
2018-10-05T15:48:52.504Z,94.20
2018-10-05T15:51:21.147Z,93.50
2018-10-05T15:53:49.743Z,94.40
2018-10-05T15:56:18.319Z,94.20
2018-10-05T15:58:46.942Z,94.70
2018-10-05T16:01:15.544Z,95.10
2018-10-05T16:03:44.254Z,94.60
2018-10-05T16:06:12.850Z,95.90
2018-10-05T16:08:41.749Z,95.00
2018-10-05T16:11:10.871Z,95.20
2018-10-05T16:13:39.835Z,96.20
2018-10-05T16:16:08.696Z,96.60
2018-10-05T16:18:37.866Z,96.50
2018-10-05T16:21:07.475Z,97.90
2018-10-05T16:23:37.450Z,97.70
2018-10-05T16:26:07.132Z,97.80
2018-10-05T16:28:36.920Z,98.40
2018-10-05T16:31:07.388Z,99.00
2018-10-05T16:33:37.080Z,99.90
2018-10-05T16:36:06.986Z,99.90
2018-10-05T16:38:36.592Z,99.90
2018-10-05T16:41:06.619Z,99.90
2018-10-05T16:43:36.332Z,99.90
2018-10-05T16:46:06.311Z,99.90
2018-10-05T16:48:36.003Z,99.90
2018-10-05T16:51:05.920Z,99.90
2018-10-05T16:53:36.355Z,99.90
2018-10-05T16:56:05.901Z,99.90
2018-10-05T16:58:35.620Z,99.90
2018-10-05T17:01:05.044Z,99.90
2018-10-05T17:03:34.553Z,99.90
2018-10-05T17:06:04.916Z,99.90
2018-10-05T17:08:36.814Z,99.90
2018-10-05T17:11:06.656Z,99.90
2018-10-05T17:13:36.676Z,99.90
2018-10-05T17:16:06.596Z,99.90
2018-10-05T17:18:36.107Z,99.90
2018-10-05T17:21:05.534Z,99.90
2018-10-05T17:23:34.815Z,99.90
2018-10-05T17:26:04.269Z,99.90
2018-10-05T17:28:34.265Z,99.90
2018-10-05T17:31:03.937Z,99.90
2018-10-05T17:33:33.131Z,99.90
2018-10-05T17:36:02.060Z,99.90
2018-10-05T17:38:31.109Z,99.90
2018-10-05T17:40:59.767Z,99.90
2018-10-05T17:43:28.534Z,99.90
2018-10-05T17:45:57.294Z,99.90
2018-10-05T17:48:26.562Z,99.90
2018-10-05T17:50:55.915Z,99.90
2018-10-05T17:53:25.028Z,99.90
2018-10-05T17:55:53.974Z,99.90
2018-10-05T17:58:22.921Z,99.90
2018-10-05T18:00:51.584Z,99.90
2018-10-05T18:03:20.177Z,99.90
2018-10-05T18:05:48.834Z,99.90
2018-10-05T18:08:17.542Z,99.90
2018-10-05T18:10:46.095Z,99.90
2018-10-05T18:13:14.685Z,99.90
2018-10-05T18:15:43.451Z,99.90
2018-10-05T18:18:12.293Z,99.90
2018-10-05T18:20:41.071Z,99.90
2018-10-05T18:23:10.373Z,99.90
2018-10-05T18:25:39.802Z,99.90
2018-10-05T18:28:09.013Z,99.90
2018-10-05T18:30:38.359Z,99.90
2018-10-05T18:33:07.661Z,99.90
2018-10-05T18:35:38.276Z,99.90
2018-10-05T18:38:08.591Z,99.90
2018-10-05T18:40:38.576Z,99.90
2018-10-05T18:43:09.297Z,99.90
2018-10-05T18:45:38.757Z,99.90
2018-10-05T18:48:08.032Z,99.90
2018-10-05T18:50:38.829Z,99.90
2018-10-05T18:53:08.945Z,99.90
2018-10-05T18:55:39.535Z,99.90
2018-10-05T18:58:09.718Z,99.90
2018-10-05T19:00:39.499Z,99.90
2018-10-05T19:03:11.299Z,99.90
2018-10-05T19:05:42.529Z,99.90
2018-10-05T19:08:13.398Z,99.90
2018-10-05T19:10:42.467Z,99.90
2018-10-05T19:13:11.278Z,99.90
2018-10-05T19:15:40.182Z,99.90
2018-10-05T19:18:09.409Z,99.90
2018-10-05T19:20:40.832Z,99.90
2018-10-05T19:23:10.313Z,99.90
2018-10-05T19:25:40.097Z,99.90
2018-10-05T19:28:09.878Z,99.90
2018-10-05T19:30:39.058Z,99.90
2018-10-05T19:33:08.629Z,99.90
2018-10-05T19:35:39.315Z,99.90
2018-10-05T19:38:08.559Z,99.90
2018-10-05T19:40:38.090Z,99.90
2018-10-05T19:43:07.458Z,99.90
2018-10-05T19:45:41.284Z,99.90
2018-10-05T19:48:10.388Z,99.90
2018-10-05T19:50:39.715Z,99.90
2018-10-05T19:53:09.739Z,99.90
2018-10-05T19:55:38.839Z,99.90
2018-10-05T19:58:08.742Z,99.90
2018-10-05T20:00:38.774Z,99.90
2018-10-05T20:03:08.692Z,99.90
2018-10-05T20:05:37.703Z,99.90
2018-10-05T20:08:07.975Z,99.90
2018-10-05T20:10:37.278Z,99.90
2018-10-05T20:13:07.891Z,99.90
2018-10-05T20:15:37.690Z,99.90
2018-10-05T20:18:07.266Z,99.90
2018-10-05T20:20:37.420Z,99.90
2018-10-05T20:23:07.107Z,99.90
2018-10-05T20:25:37.688Z,99.90
2018-10-05T20:28:07.504Z,99.90
2018-10-05T20:30:37.664Z,99.90
2018-10-05T20:33:07.725Z,99.90
2018-10-05T20:35:37.857Z,99.90
2018-10-05T20:38:07.250Z,99.90
2018-10-05T20:40:36.752Z,99.90
2018-10-05T20:43:06.279Z,99.90
2018-10-05T20:45:36.180Z,99.90
2018-10-05T20:48:05.722Z,99.90
2018-10-05T20:50:35.403Z,99.90
2018-10-05T20:53:05.279Z,99.90
2018-10-05T20:55:34.467Z,99.90
2018-10-05T20:58:04.110Z,99.90
2018-10-05T21:00:34.449Z,99.90
2018-10-05T21:03:04.089Z,99.90
2018-10-05T21:05:33.446Z,99.90
2018-10-05T21:08:03.815Z,99.90
2018-10-05T21:10:33.442Z,99.90
2018-10-05T21:13:02.835Z,99.90
2018-10-05T21:15:32.336Z,99.90
2018-10-05T21:18:01.324Z,99.90
2018-10-05T21:20:30.128Z,99.90
2018-10-05T21:22:58.812Z,99.90
2018-10-05T21:25:27.512Z,99.90
2018-10-05T21:27:58.285Z,99.90
2018-10-05T21:30:27.296Z,99.90
2018-10-05T21:32:56.118Z,99.90
2018-10-05T21:35:25.763Z,99.90
2018-10-05T21:37:54.750Z,99.90
2018-10-05T21:40:24.258Z,99.90
2018-10-05T21:42:52.882Z,99.90
2018-10-05T21:45:21.517Z,99.90
2018-10-05T21:47:50.122Z,99.90
2018-10-05T21:50:18.744Z,99.90
2018-10-05T21:52:47.339Z,99.90
2018-10-05T21:55:15.974Z,99.90
2018-10-05T21:57:44.620Z,99.90
2018-10-05T22:00:13.396Z,99.90
2018-10-05T22:02:42.018Z,99.90
2018-10-05T22:05:11.135Z,99.90
2018-10-05T22:07:40.304Z,99.90
2018-10-05T22:10:09.539Z,99.90
2018-10-05T22:12:39.231Z,99.90
2018-10-05T22:15:09.124Z,99.90
2018-10-05T22:17:38.596Z,99.90
2018-10-05T22:20:08.338Z,99.90
2018-10-05T22:22:38.050Z,99.90
2018-10-05T22:25:07.882Z,99.90
2018-10-05T22:27:36.913Z,99.90
2018-10-05T22:30:07.385Z,99.90
2018-10-05T22:32:36.854Z,99.90
2018-10-05T22:35:06.506Z,99.90
2018-10-05T22:37:35.838Z,99.90
2018-10-05T22:40:05.031Z,99.90
2018-10-05T22:42:35.183Z,99.90
2018-10-05T22:45:06.193Z,99.90
2018-10-05T22:47:36.193Z,99.90
2018-10-05T22:50:06.404Z,99.90
2018-10-05T22:52:36.014Z,99.90
2018-10-05T22:55:06.000Z,99.90
2018-10-05T22:57:36.762Z,99.90
2018-10-05T23:00:07.101Z,99.90
2018-10-05T23:02:38.043Z,99.90
2018-10-05T23:05:08.309Z,99.90
2018-10-05T23:07:37.558Z,99.90
2018-10-05T23:10:07.045Z,99.90
2018-10-05T23:12:36.329Z,99.90
2018-10-05T23:15:06.032Z,99.90
2018-10-05T23:17:35.754Z,99.90
2018-10-05T23:20:06.577Z,99.90
2018-10-05T23:22:36.064Z,99.90
2018-10-05T23:25:06.483Z,99.90
2018-10-05T23:27:37.354Z,99.90
2018-10-05T23:30:06.677Z,99.90
2018-10-05T23:32:37.018Z,99.90
2018-10-05T23:35:07.690Z,99.90
2018-10-05T23:37:38.086Z,99.90
2018-10-05T23:40:08.742Z,99.90
2018-10-05T23:42:39.040Z,99.90
2018-10-05T23:45:08.675Z,99.90
2018-10-05T23:47:38.203Z,99.90
2018-10-05T23:50:07.590Z,99.90
2018-10-05T23:52:39.869Z,99.90
2018-10-05T23:55:09.185Z,99.90
2018-10-05T23:57:39.290Z,99.90
